createdAt,value
2023-05-06T00:02:44.091Z,4.19
2023-05-06T00:12:52.724Z,4.18
2023-05-06T00:23:01.283Z,4.97
2023-05-06T00:33:10.008Z,4.85
2023-05-06T00:43:18.644Z,5.63
2023-05-06T00:53:27.282Z,6.1
2023-05-06T01:03:36.170Z,5.65
2023-05-06T01:13:45.387Z,6.11
2023-05-06T01:23:53.968Z,6.12
2023-05-06T01:34:02.801Z,4.77
2023-05-06T01:44:11.534Z,5.14
2023-05-06T01:54:20.346Z,6.31
2023-05-06T02:04:29.059Z,6.53
2023-05-06T02:14:37.718Z,7.06
2023-05-06T02:24:46.318Z,7.8
2023-05-06T02:34:54.936Z,7.53
2023-05-06T02:45:03.651Z,10.7
2023-05-06T02:55:12.390Z,11.89
2023-05-06T03:05:21.156Z,11.15
2023-05-06T03:15:29.778Z,12.31
2023-05-06T03:25:38.418Z,8.66
2023-05-06T03:35:47.132Z,12.27
2023-05-06T03:45:55.825Z,14.66
2023-05-06T03:56:04.450Z,15.5
2023-05-06T04:06:13.067Z,15.36
2023-05-06T04:16:21.706Z,14.55
2023-05-06T04:26:30.413Z,14.57
2023-05-06T04:36:40.061Z,15.86
2023-05-06T04:46:47.308Z,14.83
2023-05-06T04:56:56.018Z,13.08
2023-05-06T05:07:04.769Z,12.33
2023-05-06T05:17:13.655Z,12.59
2023-05-06T05:27:22.275Z,13.85
2023-05-06T05:37:31.521Z,16.47
2023-05-06T05:47:40.273Z,18.18
2023-05-06T05:57:49.369Z,18
2023-05-06T06:07:58.149Z,19.51
2023-05-06T06:18:06.911Z,19.94
2023-05-06T06:28:15.609Z,21.73
2023-05-06T06:38:24.223Z,18.82
2023-05-06T06:48:32.980Z,18.72
2023-05-06T06:58:41.579Z,16.64
2023-05-06T07:08:51.188Z,13.95
2023-05-06T07:18:59.763Z,12.27
2023-05-06T07:29:08.266Z,10.7
2023-05-06T07:39:16.965Z,9.53
2023-05-06T07:49:25.612Z,8.16
2023-05-06T07:59:34.400Z,6.05
2023-05-06T08:09:43.358Z,6.23
2023-05-06T08:19:56.142Z,7.02
2023-05-06T08:29:55.946Z,5.09
2023-05-06T08:40:04.056Z,4.38
2023-05-06T09:10:17.137Z,2.75
2023-05-06T09:20:25.782Z,5.02
2023-05-06T09:30:34.588Z,3.03
2023-05-06T09:40:43.200Z,3.71
2023-05-06T09:50:51.831Z,3.71
2023-05-06T10:01:00.508Z,2.3
2023-05-06T10:11:09.051Z,2.28
2023-05-06T10:21:17.863Z,1.58
2023-05-06T10:31:26.516Z,2.44
2023-05-06T10:41:35.188Z,2.93
2023-05-06T10:51:43.792Z,2.92
2023-05-06T11:01:52.400Z,2.2
2023-05-06T11:12:00.982Z,2.1
2023-05-06T11:22:09.583Z,1.7
2023-05-06T11:32:22.416Z,1.53
2023-05-06T11:42:29.262Z,1.56
2023-05-06T11:52:27.778Z,1.51
2023-05-06T12:02:47.889Z,2.05
2023-05-06T12:12:46.402Z,1.87
2023-05-06T12:23:00.457Z,1.45
2023-05-06T12:33:35.480Z,1.44
2023-05-06T12:43:24.711Z,1.89
2023-05-06T12:53:23.806Z,2.72
2023-05-06T13:03:26.284Z,2.54
2023-05-06T13:13:28.200Z,2.73
2023-05-06T13:23:27.037Z,3.68
2023-05-06T13:33:35.803Z,3.46
2023-05-06T13:43:45.444Z,2.26
2023-05-06T13:53:56.127Z,1.27
2023-05-06T14:03:56.543Z,1.99
2023-05-06T14:14:20.194Z,1.75
2023-05-06T14:24:13.618Z,2.42
2023-05-06T14:34:29.399Z,2
2023-05-06T14:44:28.252Z,1.86
2023-05-06T14:54:40.485Z,1.94
2023-05-06T15:04:34.628Z,1.55
2023-05-06T15:14:34.794Z,1.63
2023-05-06T15:34:42.271Z,1.48
2023-05-06T15:44:56.016Z,1.74
2023-05-06T15:54:59.356Z,1.68
2023-05-06T16:05:03.021Z,1.66
2023-05-06T16:15:14.191Z,1.91
2023-05-06T16:25:26.072Z,1.75
2023-05-06T16:35:14.130Z,1.53
2023-05-06T16:45:20.262Z,1.14
2023-05-06T16:55:20.000Z,1.58
2023-05-06T17:05:28.961Z,1.23
2023-05-06T17:15:37.720Z,1.42
2023-05-06T17:25:46.820Z,1.22
2023-05-06T17:35:55.874Z,1.25
2023-05-06T17:46:04.694Z,1.43
2023-05-06T17:56:13.509Z,1.35
2023-05-06T18:06:22.367Z,1.7
2023-05-06T18:16:31.258Z,1.47
2023-05-06T18:26:43.767Z,1.97
2023-05-06T18:36:47.964Z,1.56
2023-05-06T18:46:56.757Z,1.56
2023-05-06T18:57:05.534Z,1.77
2023-05-06T19:07:15.615Z,1.63
2023-05-06T19:17:22.728Z,1.93
2023-05-06T19:27:31.462Z,2.46
2023-05-06T19:37:40.203Z,2.36
2023-05-06T19:47:48.999Z,2.42
2023-05-06T19:57:57.639Z,3.05
2023-05-06T20:08:06.369Z,4.59
2023-05-06T20:18:15.196Z,5.07
2023-05-06T20:28:25.773Z,4.05
2023-05-06T20:38:26.779Z,2.84
2023-05-06T20:48:27.190Z,2.47
2023-05-06T20:58:40.323Z,5.08
2023-05-06T21:08:29.179Z,4.99
2023-05-06T21:18:38.067Z,5.04
2023-05-06T21:28:46.745Z,4.83
2023-05-06T21:38:55.444Z,6.54
2023-05-06T21:49:04.214Z,9.33
2023-05-06T21:59:13.405Z,6.96
2023-05-06T22:09:22.130Z,5.49
2023-05-06T22:19:31.510Z,5.56
2023-05-06T22:29:40.094Z,5.23
2023-05-06T22:39:49.941Z,4.88
2023-05-06T22:49:58.667Z,4.1
2023-05-06T23:00:07.271Z,2.98
2023-05-06T23:10:15.962Z,3.11
2023-05-06T23:20:26.058Z,3.79
2023-05-06T23:30:24.698Z,3.44
2023-05-06T23:40:33.402Z,3.75
2023-05-06T23:50:42.226Z,3.92
